EBAW/ANR METAR and TAF weather

Enter ICAO airport designator
Station Type Date Time Source
EBAW METAR 2021/09/28 03:20 UTC NOAA

EBAW 280320Z AUTO 19005KT CAVOK 11/08 Q1022


Station Type Date Time Source
EBAW Decoded METAR 2021/09/28 03:20 UTC NOAA

Antwerpen / Deurne, Belgium (EBAW) 51-12N 004-28E 14M
Sep 27, 2021 - 11:20 PM EDT / 2021.09.28 0320 UTC
Wind: from the S (190 degrees) at 6 MPH (5 KT):0
Visibility: greater than 7 mile(s):0
Temperature: 51 F (11 C)
Dew Point: 46 F (8 C)
Relative Humidity: 81%
Pressure (altimeter): 30.18 in. Hg (1022 hPa)
ob: EBAW 280320Z AUTO 19005KT CAVOK 11/08 Q1022
cycle: 3

Station Type Date Time Source
EBAW TAF 2020/09/23 00:30 UTC NOAA

TAF TAF EBAW 232300Z 2400/2412 25011KT 9999 SCT030

Example: see airport list